Terminal Aerodrome Forecast
Issued by NWS

Home | Current Version | Previous Version | Text Only | Print | Product List | Glossary On
Versions: 1 2 3 4 5 6 7 8 9 10 11 12 13 14 15 16 17
000
FTUS43 KLSX 031126
TAFSUS
TAF
KSUS 031126Z 0312/0412 21003KT P6SM SCT120
     FM031600 23007KT P6SM FEW050
     FM040200 00000KT P6SM SCT250
     FM040600 00000KT 5SM BR SCT250
      TEMPO 0408/0411 3/4SM BR=

USA.gov is the U.S. government's official web portal to all federal, state and local government web resources and services.